Time;durP1;ratioP1;P1;durP2;ratioP2;P2;SDS_P1;SDS_P2;PMS_P1;PMS_P2;Temp;Humidity;BMP_temperature;BMP_pressure;BME280_temperature;BME280_humidity;BME280_pressure;Samples;Min_cycle;Max_cycle;Signal;HPM_P1;HPM_P2
2023/04/26 00:02:03;;;;;;;3.97;2.60;;;;;;;;;;4452021;32;20655;-80
2023/04/26 00:04:32;;;;;;;9.00;2.77;;;;;;;;;;4452053;32;20533;-78
2023/04/26 00:07:00;;;;;;;6.63;3.10;;;;;;;;;;4452082;32;20541;-78
2023/04/26 00:09:28;;;;;;;4.30;2.53;;;;;;;;;;4452079;32;20510;-80
2023/04/26 00:11:55;;;;;;;10.90;2.43;;;;;;;;;;4452007;32;20650;-80
2023/04/26 00:14:24;;;;;;;4.63;2.03;;;;;;;;;;4451975;32;20552;-78
2023/04/26 00:16:53;;;;;;;6.07;2.93;;;;;;;;;;4451971;32;20786;-78
2023/04/26 00:19:21;;;;;;;4.13;2.30;;;;;;;;;;4452618;32;20549;-78
2023/04/26 00:21:49;;;;;;;5.07;3.03;;;;;;;;;;4451676;32;20576;-79
2023/04/26 00:24:17;;;;;;;4.70;2.67;;;;;;;;;;4451869;32;20570;-80
2023/04/26 00:26:45;;;;;;;7.37;3.07;;;;;;;;;;4451807;32;20686;-79
2023/04/26 00:29:13;;;;;;;4.17;3.00;;;;;;;;;;4451899;32;20561;-81
2023/04/26 00:31:42;;;;;;;4.97;3.10;;;;;;;;;;4451706;32;20580;-81
2023/04/26 00:34:09;;;;;;;6.97;2.83;;;;;;;;;;4452362;32;20557;-78
2023/04/26 00:36:36;;;;;;;6.33;3.10;;;;;;;;;;4451803;32;20607;-80
2023/04/26 00:39:04;;;;;;;4.87;3.07;;;;;;;;;;4451749;32;20246;-78
2023/04/26 00:41:31;;;;;;;6.57;2.57;;;;;;;;;;4451731;32;20275;-79
2023/04/26 00:43:59;;;;;;;5.10;3.20;;;;;;;;;;4451759;32;20529;-78
2023/04/26 00:46:28;;;;;;;4.67;2.50;;;;;;;;;;4451614;32;20578;-80
2023/04/26 00:48:57;;;;;;;5.43;2.73;;;;;;;;;;4451500;32;20357;-79
2023/04/26 00:51:26;;;;;;;8.17;3.07;;;;;;;;;;4451628;32;20643;-79
2023/04/26 00:53:53;;;;;;;10.33;6.33;;;;;;;;;;4451503;32;20613;-79
2023/04/26 00:56:23;;;;;;;8.93;5.13;;;;;;;;;;4451730;32;20695;-79
2023/04/26 00:58:50;;;;;;;6.43;4.63;;;;;;;;;;4451639;32;20605;-80
2023/04/26 01:01:18;;;;;;;10.23;3.13;;;;;;;;;;4451743;32;20616;-79
2023/04/26 01:03:45;;;;;;;9.13;5.53;;;;;;;;;;4451608;32;20613;-81
2023/04/26 01:06:15;;;;;;;7.10;3.97;;;;;;;;;;4451548;32;20610;-78
2023/04/26 01:08:42;;;;;;;7.83;3.73;;;;;;;;;;4451086;32;20653;-79
2023/04/26 01:11:10;;;;;;;4.07;2.80;;;;;;;;;;4451617;32;20242;-80
2023/04/26 01:13:38;;;;;;;4.87;3.03;;;;;;;;;;4451301;32;20673;-78
2023/04/26 01:16:08;;;;;;;3.27;2.10;;;;;;;;;;4451481;32;20559;-79
2023/04/26 01:18:35;;;;;;;3.40;1.97;;;;;;;;;;4452651;32;20598;-79
2023/04/26 01:21:04;;;;;;;5.63;1.73;;;;;;;;;;4454015;32;20314;-78
2023/04/26 01:23:33;;;;;;;1.37;1.13;;;;;;;;;;4454115;32;20291;-78
2023/04/26 01:26:00;;;;;;;3.10;1.43;;;;;;;;;;4454196;32;20540;-80
2023/04/26 01:28:29;;;;;;;3.07;1.63;;;;;;;;;;4454099;32;20656;-80
2023/04/26 01:30:56;;;;;;;16.87;5.33;;;;;;;;;;4454082;32;20609;-80
2023/04/26 01:33:24;;;;;;;11.17;4.77;;;;;;;;;;4453983;32;20658;-78
2023/04/26 01:35:51;;;;;;;11.87;4.80;;;;;;;;;;4453845;32;20235;-80
2023/04/26 01:38:19;;;;;;;10.07;4.00;;;;;;;;;;4453961;32;20638;-79
2023/04/26 01:40:47;;;;;;;8.03;3.50;;;;;;;;;;4453767;32;20630;-81
2023/04/26 01:43:17;;;;;;;12.97;5.93;;;;;;;;;;4453750;32;20791;-80
2023/04/26 01:45:47;;;;;;;8.53;3.60;;;;;;;;;;4453936;32;20544;-79
2023/04/26 01:48:15;;;;;;;6.47;3.70;;;;;;;;;;4453790;32;20726;-80
2023/04/26 01:50:42;;;;;;;6.07;3.07;;;;;;;;;;4453927;32;20604;-80
2023/04/26 01:53:09;;;;;;;6.27;3.03;;;;;;;;;;4453771;32;20568;-80
2023/04/26 01:55:37;;;;;;;5.80;2.77;;;;;;;;;;4453712;32;20573;-81
2023/04/26 01:58:06;;;;;;;3.07;1.93;;;;;;;;;;4453626;32;20634;-80
2023/04/26 02:00:33;;;;;;;6.37;2.63;;;;;;;;;;4454083;32;20585;-78
2023/04/26 02:03:01;;;;;;;6.70;2.93;;;;;;;;;;4453443;32;20346;-80
2023/04/26 02:05:28;;;;;;;7.87;3.13;;;;;;;;;;4453534;32;20622;-79
2023/04/26 02:07:55;;;;;;;4.87;2.47;;;;;;;;;;4453539;32;20625;-77
2023/04/26 02:10:23;;;;;;;6.80;3.63;;;;;;;;;;4453503;32;20599;-80
2023/04/26 02:12:50;;;;;;;7.03;3.57;;;;;;;;;;4453439;32;20621;-79
2023/04/26 02:15:20;;;;;;;7.30;4.83;;;;;;;;;;4453286;32;20540;-78
2023/04/26 02:17:48;;;;;;;13.33;5.20;;;;;;;;;;4453385;32;20600;-80
2023/04/26 02:20:15;;;;;;;6.83;4.30;;;;;;;;;;4453394;32;20674;-78
2023/04/26 02:22:42;;;;;;;5.67;3.83;;;;;;;;;;4453138;32;20663;-80
2023/04/26 02:25:10;;;;;;;8.53;4.20;;;;;;;;;;4453474;32;20608;-80
2023/04/26 02:27:38;;;;;;;9.43;3.73;;;;;;;;;;4453257;32;20639;-79
2023/04/26 02:30:07;;;;;;;5.03;2.43;;;;;;;;;;4453421;32;20699;-79
2023/04/26 02:32:35;;;;;;;3.27;2.20;;;;;;;;;;4453307;32;20238;-78
2023/04/26 02:35:04;;;;;;;5.07;2.03;;;;;;;;;;4453280;32;20568;-78
2023/04/26 02:37:32;;;;;;;2.30;1.53;;;;;;;;;;4453149;32;20610;-79
2023/04/26 02:39:59;;;;;;;6.03;2.77;;;;;;;;;;4453176;32;20597;-77
2023/04/26 02:42:27;;;;;;;2.97;1.60;;;;;;;;;;4453355;32;20296;-78
2023/04/26 02:44:54;;;;;;;4.53;2.40;;;;;;;;;;4453119;32;20634;-79
2023/04/26 02:47:21;;;;;;;3.80;2.40;;;;;;;;;;4452973;32;20608;-79
2023/04/26 02:49:51;;;;;;;4.67;2.93;;;;;;;;;;4453035;32;20544;-82
2023/04/26 02:52:19;;;;;;;6.23;2.93;;;;;;;;;;4452828;32;20635;-79
2023/04/26 02:54:46;;;;;;;5.73;2.53;;;;;;;;;;4452898;32;20632;-77
2023/04/26 02:57:14;;;;;;;4.37;2.77;;;;;;;;;;4452757;32;20620;-79
2023/04/26 02:59:42;;;;;;;4.20;2.30;;;;;;;;;;4452861;32;20537;-78
2023/04/26 03:02:12;;;;;;;3.47;1.93;;;;;;;;;;4452784;32;20540;-80
2023/04/26 03:04:40;;;;;;;3.80;2.23;;;;;;;;;;4452710;32;20570;-81
2023/04/26 03:07:09;;;;;;;5.77;2.13;;;;;;;;;;4453036;32;20626;-79
2023/04/26 03:09:37;;;;;;;2.40;1.83;;;;;;;;;;4452654;32;20675;-79
2023/04/26 03:12:06;;;;;;;4.40;1.97;;;;;;;;;;4452467;32;20646;-81
2023/04/26 03:14:33;;;;;;;4.20;3.07;;;;;;;;;;4452538;32;20536;-81
2023/04/26 03:17:01;;;;;;;7.53;4.10;;;;;;;;;;4452553;32;20334;-81
2023/04/26 03:19:29;;;;;;;4.07;2.70;;;;;;;;;;4452469;32;20605;-80
2023/04/26 03:21:56;;;;;;;3.57;2.47;;;;;;;;;;4452236;32;20567;-80
2023/04/26 03:24:25;;;;;;;3.83;2.80;;;;;;;;;;4452384;32;20514;-80
2023/04/26 03:26:53;;;;;;;5.00;2.80;;;;;;;;;;4452402;32;20616;-79
2023/04/26 03:29:20;;;;;;;5.80;3.10;;;;;;;;;;4452434;32;20595;-80
2023/04/26 03:31:48;;;;;;;6.47;2.60;;;;;;;;;;4452428;32;20596;-79
2023/04/26 03:34:15;;;;;;;3.53;2.40;;;;;;;;;;4452363;32;20660;-80
2023/04/26 03:36:42;;;;;;;3.33;2.47;;;;;;;;;;4452386;32;20728;-80
2023/04/26 03:39:10;;;;;;;5.63;3.33;;;;;;;;;;4452189;32;20633;-79
2023/04/26 03:41:39;;;;;;;4.80;2.93;;;;;;;;;;4451881;32;20595;-79
2023/04/26 03:44:06;;;;;;;5.57;2.90;;;;;;;;;;4452182;32;20689;-80
2023/04/26 03:46:34;;;;;;;3.40;2.77;;;;;;;;;;4452226;32;20357;-78
2023/04/26 03:49:01;;;;;;;8.10;4.77;;;;;;;;;;4451936;32;20611;-79
2023/04/26 03:51:30;;;;;;;5.20;4.00;;;;;;;;;;4452088;32;20595;-80
2023/04/26 03:53:58;;;;;;;7.40;4.60;;;;;;;;;;4452418;32;20643;-80
2023/04/26 03:56:26;;;;;;;5.53;3.27;;;;;;;;;;4452104;32;20679;-78
2023/04/26 03:58:55;;;;;;;5.83;3.90;;;;;;;;;;4452084;32;20629;-78
2023/04/26 04:01:23;;;;;;;8.57;3.87;;;;;;;;;;4452061;32;20299;-78
2023/04/26 04:03:50;;;;;;;4.53;3.70;;;;;;;;;;4451925;32;20545;-79
2023/04/26 04:06:18;;;;;;;3.90;3.50;;;;;;;;;;4452000;32;20529;-79
2023/04/26 04:08:45;;;;;;;6.13;3.43;;;;;;;;;;4451832;32;20546;-78
2023/04/26 04:11:12;;;;;;;8.87;3.20;;;;;;;;;;4451764;32;20559;-80
2023/04/26 04:13:40;;;;;;;5.07;3.73;;;;;;;;;;4451820;32;20264;-78
2023/04/26 04:16:09;;;;;;;4.77;3.07;;;;;;;;;;4451862;32;20560;-80
2023/04/26 04:18:36;;;;;;;5.60;4.23;;;;;;;;;;4451739;32;20708;-79
2023/04/26 04:21:04;;;;;;;6.27;4.97;;;;;;;;;;4451741;32;20637;-78
2023/04/26 04:23:31;;;;;;;10.70;4.60;;;;;;;;;;4451715;32;20514;-79
2023/04/26 04:25:59;;;;;;;3.80;3.40;;;;;;;;;;4451825;32;20540;-79
2023/04/26 04:28:26;;;;;;;4.70;3.30;;;;;;;;;;4451416;32;20699;-80
2023/04/26 04:30:55;;;;;;;13.10;6.37;;;;;;;;;;4451560;32;20663;-80
2023/04/26 04:33:27;;;;;;;20.70;9.17;;;;;;;;;;4451663;32;20499;-81
2023/04/26 04:35:54;;;;;;;33.67;12.90;;;;;;;;;;4451507;32;20643;-81
2023/04/26 04:38:22;;;;;;;22.57;10.93;;;;;;;;;;4451472;32;20547;-81
2023/04/26 04:40:50;;;;;;;18.80;9.53;;;;;;;;;;4451341;32;20739;-81
2023/04/26 04:43:18;;;;;;;18.70;10.93;;;;;;;;;;4451140;32;20649;-81
2023/04/26 04:45:46;;;;;;;15.70;8.97;;;;;;;;;;4451485;32;20641;-80
2023/04/26 04:48:13;;;;;;;14.27;9.03;;;;;;;;;;4451307;32;20533;-80
2023/04/26 04:50:42;;;;;;;18.23;9.57;;;;;;;;;;4451294;32;20647;-80
2023/04/26 04:53:11;;;;;;;18.20;8.43;;;;;;;;;;4451993;32;20628;-78
2023/04/26 04:55:38;;;;;;;12.63;7.87;;;;;;;;;;4454113;32;20614;-81
2023/04/26 04:58:06;;;;;;;14.13;8.30;;;;;;;;;;4454087;32;20595;-79
2023/04/26 05:00:33;;;;;;;13.03;8.47;;;;;;;;;;4454130;32;20579;-80
2023/04/26 05:03:01;;;;;;;16.97;8.07;;;;;;;;;;4454057;32;20547;-78
2023/04/26 05:05:28;;;;;;;12.57;8.27;;;;;;;;;;4453321;32;20604;-79
2023/04/26 05:07:57;;;;;;;16.03;9.20;;;;;;;;;;4453349;32;20551;-78
2023/04/26 05:10:25;;;;;;;13.87;9.13;;;;;;;;;;4452625;32;20381;-79
2023/04/26 05:12:52;;;;;;;14.60;9.40;;;;;;;;;;4452844;32;20585;-79
2023/04/26 05:15:19;;;;;;;13.73;10.27;;;;;;;;;;4452935;32;20580;-80
2023/04/26 05:17:47;;;;;;;16.73;9.97;;;;;;;;;;4453495;32;20678;-80
2023/04/26 05:20:15;;;;;;;17.43;11.83;;;;;;;;;;4452871;32;20514;-80
2023/04/26 05:22:42;;;;;;;18.47;12.20;;;;;;;;;;4452756;32;20548;-79
2023/04/26 05:25:12;;;;;;;19.43;12.63;;;;;;;;;;4452907;32;20652;-80
2023/04/26 05:27:40;;;;;;;23.37;15.43;;;;;;;;;;4453072;32;20620;-78
2023/04/26 05:30:09;;;;;;;25.93;13.50;;;;;;;;;;4453425;32;20749;-77
2023/04/26 05:32:36;;;;;;;20.87;14.10;;;;;;;;;;4453268;32;20612;-80
2023/04/26 05:35:04;;;;;;;33.93;19.87;;;;;;;;;;4453119;32;20576;-80
2023/04/26 05:37:31;;;;;;;33.10;22.23;;;;;;;;;;4452656;32;20310;-80
2023/04/26 05:39:58;;;;;;;38.63;20.33;;;;;;;;;;4452688;32;20631;-80
2023/04/26 05:42:27;;;;;;;23.53;14.47;;;;;;;;;;4452845;32;20606;-80
2023/04/26 05:44:58;;;;;;;15.47;10.27;;;;;;;;;;4452586;32;20652;-80
2023/04/26 05:47:26;;;;;;;17.90;11.87;;;;;;;;;;4453160;32;20571;-79
2023/04/26 05:49:54;;;;;;;17.13;11.07;;;;;;;;;;4453205;32;20658;-79
2023/04/26 05:52:21;;;;;;;12.20;8.63;;;;;;;;;;4453221;32;20576;-80
2023/04/26 05:54:48;;;;;;;11.87;8.47;;;;;;;;;;4452881;32;20619;-77
2023/04/26 05:57:16;;;;;;;11.93;8.27;;;;;;;;;;4453122;32;20587;-81
2023/04/26 05:59:45;;;;;;;11.63;8.27;;;;;;;;;;4453236;32;20580;-81
2023/04/26 06:02:13;;;;;;;9.27;7.57;;;;;;;;;;4452975;32;20617;-80
2023/04/26 06:04:40;;;;;;;14.07;10.03;;;;;;;;;;4452614;32;20549;-80
2023/04/26 06:07:08;;;;;;;18.13;10.47;;;;;;;;;;4452895;32;20741;-78
2023/04/26 06:09:36;;;;;;;15.33;12.60;;;;;;;;;;4452859;32;20613;-80
2023/04/26 06:12:04;;;;;;;18.37;12.70;;;;;;;;;;4452472;32;20601;-81
2023/04/26 06:14:31;;;;;;;23.47;13.90;;;;;;;;;;4452899;32;20656;-81
2023/04/26 06:17:00;;;;;;;14.87;8.80;;;;;;;;;;4452519;32;20545;-81
2023/04/26 06:19:27;;;;;;;13.83;8.63;;;;;;;;;;4452039;32;20719;-81
2023/04/26 06:21:55;;;;;;;20.03;9.60;;;;;;;;;;4452273;32;20617;-78
2023/04/26 06:24:24;;;;;;;14.23;9.67;;;;;;;;;;4452122;32;20612;-78
2023/04/26 06:26:52;;;;;;;13.57;10.20;;;;;;;;;;4452728;32;20569;-82
2023/04/26 06:29:21;;;;;;;13.53;11.33;;;;;;;;;;4452717;32;20652;-84
2023/04/26 06:31:49;;;;;;;16.13;10.83;;;;;;;;;;4452764;32;20621;-80
2023/04/26 06:34:18;;;;;;;15.10;11.87;;;;;;;;;;4452867;32;20546;-79
2023/04/26 06:36:46;;;;;;;15.90;11.07;;;;;;;;;;4452628;32;20545;-83
2023/04/26 06:39:13;;;;;;;19.53;13.80;;;;;;;;;;4452511;32;20326;-79
2023/04/26 06:41:41;;;;;;;16.90;13.03;;;;;;;;;;4452406;32;20590;-79
2023/04/26 06:44:08;;;;;;;20.70;13.37;;;;;;;;;;4452257;32;20744;-81
2023/04/26 06:46:36;;;;;;;21.03;13.80;;;;;;;;;;4452381;32;20338;-81
2023/04/26 06:49:04;;;;;;;20.23;13.27;;;;;;;;;;4452394;32;20536;-79
2023/04/26 06:51:33;;;;;;;20.67;15.53;;;;;;;;;;4452293;32;20616;-79
2023/04/26 06:54:01;;;;;;;20.47;16.13;;;;;;;;;;4452675;32;20649;-78
2023/04/26 06:56:30;;;;;;;19.67;15.70;;;;;;;;;;4452534;32;20659;-81
2023/04/26 06:59:01;;;;;;;23.50;16.27;;;;;;;;;;4452543;32;20566;-79
2023/04/26 07:01:32;;;;;;;23.37;17.43;;;;;;;;;;4452900;32;20513;-78
2023/04/26 07:04:00;;;;;;;25.37;19.67;;;;;;;;;;4452384;32;20599;-79
2023/04/26 07:06:28;;;;;;;33.93;21.77;;;;;;;;;;4452620;32;20633;-77
2023/04/26 07:08:58;;;;;;;39.23;24.23;;;;;;;;;;4452499;32;20683;-77
2023/04/26 07:11:25;;;;;;;38.60;21.93;;;;;;;;;;4452504;32;20612;-78
2023/04/26 07:13:53;;;;;;;24.27;19.80;;;;;;;;;;4452235;32;20613;-79
2023/04/26 07:16:21;;;;;;;26.37;17.97;;;;;;;;;;4451666;32;20537;-80
2023/04/26 07:18:50;;;;;;;19.00;16.47;;;;;;;;;;4451997;32;20583;-80
2023/04/26 07:21:18;;;;;;;18.13;14.67;;;;;;;;;;4451998;32;20787;-79
2023/04/26 07:23:45;;;;;;;18.03;15.33;;;;;;;;;;4452106;32;20605;-79
2023/04/26 07:26:14;;;;;;;16.33;13.00;;;;;;;;;;4452000;32;20626;-77
2023/04/26 07:28:42;;;;;;;12.83;9.77;;;;;;;;;;4452005;32;20618;-80
2023/04/26 07:31:10;;;;;;;11.83;8.93;;;;;;;;;;4452208;32;20572;-78
2023/04/26 07:33:37;;;;;;;18.57;8.43;;;;;;;;;;4452111;32;20529;-77
2023/04/26 07:36:05;;;;;;;10.73;8.53;;;;;;;;;;4452499;32;20281;-77
2023/04/26 07:38:33;;;;;;;7.13;6.40;;;;;;;;;;4451565;32;20532;-78
2023/04/26 07:41:00;;;;;;;14.67;6.57;;;;;;;;;;4451984;32;20632;-80
2023/04/26 07:43:31;;;;;;;9.33;7.30;;;;;;;;;;4452087;32;20700;-79
2023/04/26 07:46:01;;;;;;;10.37;8.17;;;;;;;;;;4452270;32;20682;-79
2023/04/26 07:48:28;;;;;;;19.40;14.93;;;;;;;;;;4451764;32;20704;-78
2023/04/26 07:50:56;;;;;;;12.40;9.57;;;;;;;;;;4451836;32;20584;-81
2023/04/26 07:53:23;;;;;;;13.70;10.90;;;;;;;;;;4451975;32;20267;-80
2023/04/26 07:55:51;;;;;;;14.63;10.73;;;;;;;;;;4451238;32;20642;-81
2023/04/26 07:58:18;;;;;;;16.07;10.73;;;;;;;;;;4450807;32;20695;-79
2023/04/26 08:00:47;;;;;;;22.40;15.07;;;;;;;;;;4451372;32;20656;-83
2023/04/26 08:03:16;;;;;;;47.10;23.87;;;;;;;;;;4450834;32;20311;-80
2023/04/26 08:05:44;;;;;;;29.63;16.17;;;;;;;;;;4450862;32;20612;-80
2023/04/26 08:08:12;;;;;;;16.40;10.83;;;;;;;;;;4451717;32;20605;-81
2023/04/26 08:10:41;;;;;;;10.53;6.90;;;;;;;;;;4453607;32;20656;-81
2023/04/26 08:13:09;;;;;;;6.73;5.23;;;;;;;;;;4452407;32;20632;-79
2023/04/26 08:15:36;;;;;;;12.07;7.37;;;;;;;;;;4451359;32;20568;-83
2023/04/26 08:18:05;;;;;;;26.43;12.90;;;;;;;;;;4450806;32;20252;-79
2023/04/26 08:20:33;;;;;;;20.83;9.57;;;;;;;;;;4450969;32;20656;-81
2023/04/26 08:23:00;;;;;;;13.83;8.53;;;;;;;;;;4451022;32;20684;-81
2023/04/26 08:25:28;;;;;;;12.50;9.07;;;;;;;;;;4450115;32;20560;-80
2023/04/26 08:27:55;;;;;;;10.77;7.53;;;;;;;;;;4452392;32;20263;-80
2023/04/26 08:30:22;;;;;;;12.03;6.77;;;;;;;;;;4453959;32;20594;-81
2023/04/26 08:32:50;;;;;;;7.83;6.73;;;;;;;;;;4454492;32;20540;-82
2023/04/26 08:35:19;;;;;;;11.77;6.57;;;;;;;;;;4454074;32;20609;-83
2023/04/26 08:37:46;;;;;;;7.53;6.17;;;;;;;;;;4453992;32;20548;-81
2023/04/26 08:40:14;;;;;;;6.53;4.27;;;;;;;;;;4454360;32;20580;-81
2023/04/26 08:42:44;;;;;;;7.50;4.87;;;;;;;;;;4454591;32;20529;-81
2023/04/26 08:45:12;;;;;;;7.97;5.90;;;;;;;;;;4454138;32;20665;-81
2023/04/26 08:47:44;;;;;;;15.43;10.47;;;;;;;;;;4454964;32;20710;-81
2023/04/26 08:50:13;;;;;;;10.57;7.30;;;;;;;;;;4454251;32;20616;-83
2023/04/26 08:52:43;;;;;;;9.37;6.93;;;;;;;;;;4454003;32;20540;-83
2023/04/26 08:55:11;;;;;;;11.03;5.20;;;;;;;;;;4454548;32;20652;-85
2023/04/26 08:57:40;;;;;;;10.23;5.53;;;;;;;;;;4453483;32;20600;-81
2023/04/26 09:00:11;;;;;;;8.37;5.23;;;;;;;;;;4453821;32;20645;-83
2023/04/26 09:02:40;;;;;;;11.97;6.07;;;;;;;;;;4453882;32;20620;-80
2023/04/26 09:05:09;;;;;;;10.13;8.33;;;;;;;;;;4453997;32;20578;-81
2023/04/26 09:07:42;;;;;;;6.93;5.43;;;;;;;;;;4453878;32;20657;-81
2023/04/26 09:10:12;;;;;;;9.77;6.93;;;;;;;;;;4453526;32;20576;-81
2023/04/26 09:12:40;;;;;;;8.30;6.30;;;;;;;;;;4453340;32;20707;-81
2023/04/26 09:15:09;;;;;;;6.67;4.80;;;;;;;;;;4453697;32;20611;-79
2023/04/26 09:17:38;;;;;;;6.97;4.50;;;;;;;;;;4453839;32;20605;-80
2023/04/26 09:20:20;;;;;;;5.27;4.53;;;;;;;;;;4453893;32;20587;-82
2023/04/26 09:22:49;;;;;;;6.63;3.93;;;;;;;;;;4453813;32;20621;-82
2023/04/26 09:25:18;;;;;;;6.00;5.10;;;;;;;;;;4453882;32;20635;-80
2023/04/26 09:27:46;;;;;;;6.60;4.87;;;;;;;;;;4453823;32;20661;-79
2023/04/26 09:30:17;;;;;;;9.80;5.23;;;;;;;;;;4453593;32;20679;-82
2023/04/26 09:32:46;;;;;;;6.93;5.63;;;;;;;;;;4453722;32;20583;-79
2023/04/26 09:35:28;;;;;;;13.93;5.53;;;;;;;;;;4453556;32;20315;-80
2023/04/26 09:37:59;;;;;;;7.07;5.37;;;;;;;;;;4453551;32;20620;-80
2023/04/26 09:40:28;;;;;;;6.60;5.60;;;;;;;;;;4453011;32;20656;-81
2023/04/26 09:42:59;;;;;;;10.67;7.47;;;;;;;;;;4453666;32;20599;-80
2023/04/26 09:45:28;;;;;;;16.93;10.30;;;;;;;;;;4453769;32;20357;-81
2023/04/26 09:47:56;;;;;;;10.90;7.13;;;;;;;;;;4453452;32;20560;-81
2023/04/26 09:50:28;;;;;;;5.80;5.00;;;;;;;;;;4453426;32;20552;-81
2023/04/26 09:52:57;;;;;;;6.10;3.97;;;;;;;;;;4454054;32;20589;-81
2023/04/26 09:55:28;;;;;;;5.77;3.37;;;;;;;;;;4453012;32;20642;-81
2023/04/26 09:57:57;;;;;;;10.07;5.50;;;;;;;;;;4453680;32;20540;-82
2023/04/26 10:00:26;;;;;;;7.53;4.33;;;;;;;;;;4453229;32;20561;-81
2023/04/26 10:02:54;;;;;;;7.47;4.57;;;;;;;;;;4454456;32;20556;-81
2023/04/26 10:05:25;;;;;;;15.43;5.73;;;;;;;;;;4453229;32;20572;-81
2023/04/26 10:07:56;;;;;;;12.00;6.73;;;;;;;;;;4453526;32;20598;-79
2023/04/26 10:10:26;;;;;;;10.70;5.00;;;;;;;;;;4453670;32;20595;-80
2023/04/26 10:12:53;;;;;;;6.83;3.87;;;;;;;;;;4453235;32;20581;-80
2023/04/26 10:15:21;;;;;;;6.20;4.37;;;;;;;;;;4452899;32;20638;-80
2023/04/26 10:17:50;;;;;;;7.47;4.27;;;;;;;;;;4453392;32;20614;-81
2023/04/26 10:20:20;;;;;;;4.77;3.20;;;;;;;;;;4452996;32;20561;-80
2023/04/26 10:22:54;;;;;;;4.43;3.40;;;;;;;;;;4452710;32;20616;-81
2023/04/26 10:25:35;;;;;;;5.07;3.43;;;;;;;;;;4452936;32;20578;-82
2023/04/26 10:28:04;;;;;;;5.00;3.23;;;;;;;;;;4452860;32;20540;-80
2023/04/26 10:30:32;;;;;;;5.30;3.73;;;;;;;;;;4452777;32;20640;-80
2023/04/26 10:33:17;;;;;;;8.03;4.60;;;;;;;;;;4452658;32;20707;-81
2023/04/26 10:36:11;;;;;;;11.33;5.83;;;;;;;;;;4453308;32;20634;-80
2023/04/26 10:38:40;;;;;;;6.47;4.43;;;;;;;;;;4452580;32;20558;-81
2023/04/26 10:41:30;;;;;;;14.60;7.80;;;;;;;;;;4452333;32;20533;-80
2023/04/26 10:44:01;;;;;;;7.40;5.77;;;;;;;;;;4451993;32;20629;-80
2023/04/26 10:46:37;;;;;;;9.30;5.10;;;;;;;;;;4452814;32;20400;-80
2023/04/26 10:49:18;;;;;;;6.23;5.03;;;;;;;;;;4453062;32;20600;-82
2023/04/26 10:52:11;;;;;;;6.33;4.43;;;;;;;;;;4452308;32;20624;-81
2023/04/26 10:54:49;;;;;;;7.37;3.20;;;;;;;;;;4452522;32;20604;-80
2023/04/26 10:57:17;;;;;;;3.13;2.60;;;;;;;;;;4452152;32;20594;-81
2023/04/26 11:00:19;;;;;;;4.57;2.93;;;;;;;;;;4453914;32;20613;-82
2023/04/26 11:02:58;;;;;;;5.53;3.80;;;;;;;;;;4452716;32;20534;-79
2023/04/26 11:05:36;;;;;;;7.77;4.40;;;;;;;;;;4455584;32;20234;-80
2023/04/26 11:08:08;;;;;;;9.23;5.43;;;;;;;;;;4453432;32;20592;-80
2023/04/26 11:10:38;;;;;;;6.33;4.00;;;;;;;;;;4453365;32;20532;-82
2023/04/26 11:13:06;;;;;;;12.07;4.67;;;;;;;;;;4455532;32;20596;-82
2023/04/26 11:15:35;;;;;;;7.57;4.33;;;;;;;;;;4454863;32;20581;-81
2023/04/26 11:18:04;;;;;;;7.90;5.27;;;;;;;;;;4454354;32;20595;-81
2023/04/26 11:20:32;;;;;;;10.30;5.63;;;;;;;;;;4453568;32;20576;-81
2023/04/26 11:23:01;;;;;;;11.83;6.37;;;;;;;;;;4452313;32;20536;-80
2023/04/26 11:25:30;;;;;;;18.30;7.30;;;;;;;;;;4452147;32;20541;-81
2023/04/26 11:27:59;;;;;;;9.80;5.50;;;;;;;;;;4452866;32;20623;-82
2023/04/26 11:30:29;;;;;;;10.63;5.77;;;;;;;;;;4452419;32;20611;-80
2023/04/26 11:32:58;;;;;;;10.27;5.67;;;;;;;;;;4452394;32;20599;-80
2023/04/26 11:35:28;;;;;;;11.70;6.40;;;;;;;;;;4452518;32;20580;-81
2023/04/26 11:37:58;;;;;;;4.60;4.20;;;;;;;;;;4452285;32;20568;-81
2023/04/26 11:40:28;;;;;;;5.97;4.33;;;;;;;;;;4452397;32;20595;-81
2023/04/26 11:43:01;;;;;;;6.13;3.83;;;;;;;;;;4452431;32;20733;-81
2023/04/26 11:45:28;;;;;;;4.70;3.67;;;;;;;;;;4452382;32;20252;-80
2023/04/26 11:47:58;;;;;;;5.27;4.17;;;;;;;;;;4452275;32;20537;-82
2023/04/26 11:50:26;;;;;;;6.68;3.30;;;;;;;;;;4452167;32;20574;-80
2023/04/26 11:52:58;;;;;;;6.77;3.47;;;;;;;;;;4452558;32;20667;-80
2023/04/26 11:55:29;;;;;;;8.20;3.77;;;;;;;;;;4452018;32;20635;-80
2023/04/26 11:57:57;;;;;;;4.10;3.70;;;;;;;;;;4452370;32;20552;-80
2023/04/26 12:00:26;;;;;;;4.10;3.40;;;;;;;;;;4452165;32;20666;-80
2023/04/26 12:02:55;;;;;;;3.47;2.87;;;;;;;;;;4451809;32;20603;-80
2023/04/26 12:05:26;;;;;;;5.57;2.50;;;;;;;;;;4452200;32;20592;-80
2023/04/26 12:07:55;;;;;;;7.77;3.30;;;;;;;;;;4452098;32;20597;-80
2023/04/26 12:10:26;;;;;;;4.70;3.57;;;;;;;;;;4452358;32;20598;-80
2023/04/26 12:12:55;;;;;;;8.30;4.87;;;;;;;;;;4451950;32;20366;-80
2023/04/26 12:15:29;;;;;;;11.93;6.03;;;;;;;;;;4451926;32;20541;-80
2023/04/26 12:18:00;;;;;;;10.87;4.93;;;;;;;;;;4451533;32;20636;-80
2023/04/26 12:20:33;;;;;;;9.27;5.10;;;;;;;;;;4452087;32;20545;-79
2023/04/26 12:23:05;;;;;;;9.37;5.93;;;;;;;;;;4452681;32;20634;-80
2023/04/26 12:25:33;;;;;;;16.53;6.47;;;;;;;;;;4451901;32;20677;-80
2023/04/26 12:28:01;;;;;;;12.60;5.77;;;;;;;;;;4452055;32;20567;-81
2023/04/26 12:30:30;;;;;;;6.53;4.30;;;;;;;;;;4451948;32;20295;-81
2023/04/26 12:36:21;;;;;;;7.57;3.90;;;;;;;;;;4451480;32;20235;-79
2023/04/26 12:38:48;;;;;;;5.53;4.40;;;;;;;;;;4451500;32;20567;-81
2023/04/26 12:41:16;;;;;;;5.80;4.57;;;;;;;;;;4451703;32;20656;-81
2023/04/26 12:43:43;;;;;;;3.43;2.80;;;;;;;;;;4451429;32;20585;-80
2023/04/26 12:46:11;;;;;;;4.43;4.00;;;;;;;;;;4451240;32;20576;-79
2023/04/26 12:48:38;;;;;;;4.97;4.23;;;;;;;;;;4451507;32;20524;-79
2023/04/26 12:51:06;;;;;;;6.23;4.23;;;;;;;;;;4451273;32;20377;-80
2023/04/26 12:53:35;;;;;;;4.33;3.93;;;;;;;;;;4451257;32;20548;-79
2023/04/26 12:56:03;;;;;;;3.43;3.13;;;;;;;;;;4451164;32;20288;-80
2023/04/26 12:58:32;;;;;;;4.40;3.43;;;;;;;;;;4451298;32;20634;-81
2023/04/26 13:00:59;;;;;;;5.27;4.07;;;;;;;;;;4451066;32;20347;-80
2023/04/26 13:03:27;;;;;;;5.13;3.93;;;;;;;;;;4451163;32;20549;-80
2023/04/26 13:05:55;;;;;;;6.47;3.93;;;;;;;;;;4451159;32;20552;-80
2023/04/26 13:08:23;;;;;;;3.73;3.03;;;;;;;;;;4451375;32;20616;-81
2023/04/26 13:10:52;;;;;;;4.93;3.80;;;;;;;;;;4451258;32;20580;-80
2023/04/26 13:13:19;;;;;;;7.73;3.63;;;;;;;;;;4451127;32;20531;-80
2023/04/26 13:15:47;;;;;;;3.73;3.20;;;;;;;;;;4454000;32;20609;-80
2023/04/26 13:18:16;;;;;;;5.57;3.40;;;;;;;;;;4454565;32;20589;-81
2023/04/26 13:20:44;;;;;;;6.23;3.63;;;;;;;;;;4453833;32;20544;-82
2023/04/26 13:23:11;;;;;;;4.23;3.83;;;;;;;;;;4453953;32;20556;-80
2023/04/26 13:25:39;;;;;;;10.97;5.30;;;;;;;;;;4454356;32;20594;-80
2023/04/26 13:28:09;;;;;;;4.93;3.80;;;;;;;;;;4453619;32;20591;-81
2023/04/26 13:30:36;;;;;;;6.50;3.97;;;;;;;;;;4453732;32;20544;-80
2023/04/26 13:33:04;;;;;;;9.70;3.50;;;;;;;;;;4454081;32;20529;-80
2023/04/26 13:35:31;;;;;;;7.60;4.27;;;;;;;;;;4453424;32;20655;-81
2023/04/26 13:38:00;;;;;;;6.97;4.93;;;;;;;;;;4453849;32;20532;-78
2023/04/26 13:40:27;;;;;;;10.77;7.80;;;;;;;;;;4453668;32;20576;-79
2023/04/26 13:42:55;;;;;;;13.37;8.37;;;;;;;;;;4453804;32;20580;-83
2023/04/26 13:45:24;;;;;;;10.27;5.97;;;;;;;;;;4454611;32;20684;-81
2023/04/26 13:47:51;;;;;;;10.87;4.93;;;;;;;;;;4453658;32;20541;-80
2023/04/26 13:50:19;;;;;;;10.83;4.23;;;;;;;;;;4453659;32;20611;-80
2023/04/26 13:52:48;;;;;;;6.53;3.73;;;;;;;;;;4453400;32;20631;-80
2023/04/26 13:55:16;;;;;;;15.73;3.77;;;;;;;;;;4453459;32;20553;-79
2023/04/26 13:57:43;;;;;;;5.23;3.53;;;;;;;;;;4453358;32;20770;-80
2023/04/26 14:00:12;;;;;;;9.40;3.30;;;;;;;;;;4453465;32;20687;-80
2023/04/26 14:02:41;;;;;;;8.57;3.80;;;;;;;;;;4453228;32;20386;-81
2023/04/26 14:05:09;;;;;;;5.30;3.47;;;;;;;;;;4453578;32;20603;-79
2023/04/26 14:07:36;;;;;;;4.63;3.20;;;;;;;;;;4453618;32;20657;-79
2023/04/26 14:10:04;;;;;;;14.47;7.13;;;;;;;;;;4453623;32;20560;-79
2023/04/26 14:12:32;;;;;;;5.17;4.23;;;;;;;;;;4453857;32;20589;-80
2023/04/26 14:15:01;;;;;;;8.07;4.17;;;;;;;;;;4453699;32;20607;-80
2023/04/26 14:17:28;;;;;;;6.40;3.20;;;;;;;;;;4453463;32;20623;-80
2023/04/26 14:19:57;;;;;;;10.63;6.10;;;;;;;;;;4453516;32;20529;-78
2023/04/26 14:22:24;;;;;;;8.77;5.70;;;;;;;;;;4453318;32;20563;-78
2023/04/26 14:24:52;;;;;;;10.33;4.40;;;;;;;;;;4453456;32;20650;-79
2023/04/26 14:27:19;;;;;;;6.53;5.73;;;;;;;;;;4453434;32;20220;-79
2023/04/26 14:29:47;;;;;;;7.93;5.23;;;;;;;;;;4453507;32;20541;-79
2023/04/26 14:32:14;;;;;;;5.40;4.50;;;;;;;;;;4453389;32;20612;-80
2023/04/26 14:34:43;;;;;;;6.23;5.10;;;;;;;;;;4453598;32;20607;-79
2023/04/26 14:37:12;;;;;;;7.80;4.30;;;;;;;;;;4453703;32;20564;-80
2023/04/26 14:39:39;;;;;;;6.03;4.50;;;;;;;;;;4454259;32;20540;-80
2023/04/26 14:42:08;;;;;;;9.27;5.27;;;;;;;;;;4453795;32;20577;-80
2023/04/26 14:44:36;;;;;;;12.00;5.47;;;;;;;;;;4452528;32;20803;-80
2023/04/26 14:47:09;;;;;;;6.80;5.27;;;;;;;;;;4453610;32;20634;-79
2023/04/26 14:49:47;;;;;;;3.97;3.37;;;;;;;;;;4454089;32;20588;-79